sensor_id;sensor_type;location;lat;lon;timestamp;P1;durP1;ratioP1;P2;durP2;ratioP2
68074;SDS011;54864;52.002;5.468;2023-07-31T00:00:27;1.67;;;1.53;;
68074;SDS011;54864;52.002;5.468;2023-07-31T00:01:47;1.98;;;1.50;;
68074;SDS011;54864;52.002;5.468;2023-07-31T00:03:07;2.30;;;1.80;;
68074;SDS011;54864;52.002;5.468;2023-07-31T00:04:08;2.65;;;1.70;;
68074;SDS011;54864;52.002;5.468;2023-07-31T00:05:29;1.58;;;1.48;;
68074;SDS011;54864;52.002;5.468;2023-07-31T00:06:48;2.33;;;2.13;;
68074;SDS011;54864;52.002;5.468;2023-07-31T00:08:09;2.60;;;1.60;;
68074;SDS011;54864;52.002;5.468;2023-07-31T00:09:10;2.85;;;2.00;;
68074;SDS011;54864;52.002;5.468;2023-07-31T00:10:31;5.93;;;2.42;;
68074;SDS011;54864;52.002;5.468;2023-07-31T00:11:50;3.55;;;2.80;;
68074;SDS011;54864;52.002;5.468;2023-07-31T00:12:54;3.75;;;2.47;;
68074;SDS011;54864;52.002;5.468;2023-07-31T00:13:57;4.50;;;2.95;;
68074;SDS011;54864;52.002;5.468;2023-07-31T00:14:59;5.20;;;3.53;;
68074;SDS011;54864;52.002;5.468;2023-07-31T00:16:18;4.70;;;3.23;;
68074;SDS011;54864;52.002;5.468;2023-07-31T00:17:20;5.18;;;3.33;;
68074;SDS011;54864;52.002;5.468;2023-07-31T00:18:40;9.30;;;4.40;;
68074;SDS011;54864;52.002;5.468;2023-07-31T00:20:00;7.22;;;4.68;;
68074;SDS011;54864;52.002;5.468;2023-07-31T00:21:01;9.40;;;4.72;;
68074;SDS011;54864;52.002;5.468;2023-07-31T00:22:22;7.45;;;4.68;;
68074;SDS011;54864;52.002;5.468;2023-07-31T00:23:22;8.80;;;5.80;;
68074;SDS011;54864;52.002;5.468;2023-07-31T00:24:43;13.50;;;6.32;;
68074;SDS011;54864;52.002;5.468;2023-07-31T00:26:02;11.82;;;5.97;;
68074;SDS011;54864;52.002;5.468;2023-07-31T00:27:16;17.55;;;8.30;;
68074;SDS011;54864;52.002;5.468;2023-07-31T00:28:21;15.80;;;7.63;;
68074;SDS011;54864;52.002;5.468;2023-07-31T00:29:23;17.60;;;8.13;;
68074;SDS011;54864;52.002;5.468;2023-07-31T00:30:43;18.85;;;8.65;;
68074;SDS011;54864;52.002;5.468;2023-07-31T00:32:03;22.83;;;9.05;;
68074;SDS011;54864;52.002;5.468;2023-07-31T00:33:05;25.67;;;9.93;;
68074;SDS011;54864;52.002;5.468;2023-07-31T00:34:25;28.10;;;10.70;;
68074;SDS011;54864;52.002;5.468;2023-07-31T00:35:35;25.42;;;10.60;;
68074;SDS011;54864;52.002;5.468;2023-07-31T00:36:55;34.58;;;11.38;;
68074;SDS011;54864;52.002;5.468;2023-07-31T00:37:57;31.23;;;11.60;;
68074;SDS011;54864;52.002;5.468;2023-07-31T00:39:18;32.53;;;11.45;;
68074;SDS011;54864;52.002;5.468;2023-07-31T00:40:19;32.38;;;12.15;;
68074;SDS011;54864;52.002;5.468;2023-07-31T00:41:39;32.65;;;12.95;;
68074;SDS011;54864;52.002;5.468;2023-07-31T00:42:46;36.65;;;13.75;;
68074;SDS011;54864;52.002;5.468;2023-07-31T00:43:58;33.20;;;12.60;;
68074;SDS011;54864;52.002;5.468;2023-07-31T00:45:18;35.25;;;12.55;;
68074;SDS011;54864;52.002;5.468;2023-07-31T00:46:20;34.97;;;12.65;;
68074;SDS011;54864;52.002;5.468;2023-07-31T00:47:24;31.63;;;12.35;;
68074;SDS011;54864;52.002;5.468;2023-07-31T00:48:27;34.47;;;13.27;;
68074;SDS011;54864;52.002;5.468;2023-07-31T00:49:47;35.85;;;13.43;;
68074;SDS011;54864;52.002;5.468;2023-07-31T00:51:08;32.70;;;12.68;;
68074;SDS011;54864;52.002;5.468;2023-07-31T00:52:11;37.67;;;13.27;;
68074;SDS011;54864;52.002;5.468;2023-07-31T00:53:32;35.13;;;13.23;;
68074;SDS011;54864;52.002;5.468;2023-07-31T00:54:51;34.33;;;12.53;;
68074;SDS011;54864;52.002;5.468;2023-07-31T00:56:12;40.10;;;11.98;;
68074;SDS011;54864;52.002;5.468;2023-07-31T00:57:13;36.22;;;12.93;;
68074;SDS011;54864;52.002;5.468;2023-07-31T00:58:33;32.55;;;13.55;;
68074;SDS011;54864;52.002;5.468;2023-07-31T00:59:54;31.92;;;12.80;;
68074;SDS011;54864;52.002;5.468;2023-07-31T01:00:56;31.60;;;11.73;;
68074;SDS011;54864;52.002;5.468;2023-07-31T01:02:03;34.60;;;12.30;;
68074;SDS011;54864;52.002;5.468;2023-07-31T01:03:05;30.45;;;12.27;;
68074;SDS011;54864;52.002;5.468;2023-07-31T01:04:25;32.67;;;12.15;;
68074;SDS011;54864;52.002;5.468;2023-07-31T01:05:31;33.80;;;12.07;;
68074;SDS011;54864;52.002;5.468;2023-07-31T01:06:52;36.47;;;12.07;;
68074;SDS011;54864;52.002;5.468;2023-07-31T01:08:18;33.92;;;11.60;;
68074;SDS011;54864;52.002;5.468;2023-07-31T01:09:49;32.75;;;11.95;;
68074;SDS011;54864;52.002;5.468;2023-07-31T01:11:00;29.42;;;12.20;;
68074;SDS011;54864;52.002;5.468;2023-07-31T01:12:13;32.42;;;12.38;;
68074;SDS011;54864;52.002;5.468;2023-07-31T01:13:16;32.22;;;11.88;;
68074;SDS011;54864;52.002;5.468;2023-07-31T01:14:18;33.55;;;12.40;;
68074;SDS011;54864;52.002;5.468;2023-07-31T01:15:21;34.50;;;12.93;;
68074;SDS011;54864;52.002;5.468;2023-07-31T01:16:41;30.20;;;11.38;;
68074;SDS011;54864;52.002;5.468;2023-07-31T01:17:43;36.35;;;13.55;;
68074;SDS011;54864;52.002;5.468;2023-07-31T01:19:03;34.22;;;11.85;;
68074;SDS011;54864;52.002;5.468;2023-07-31T01:20:24;30.08;;;11.00;;
68074;SDS011;54864;52.002;5.468;2023-07-31T01:21:34;30.55;;;11.02;;
68074;SDS011;54864;52.002;5.468;2023-07-31T01:23:07;32.83;;;11.20;;
68074;SDS011;54864;52.002;5.468;2023-07-31T01:24:42;33.10;;;12.18;;
68074;SDS011;54864;52.002;5.468;2023-07-31T01:25:59;36.47;;;11.32;;
68074;SDS011;54864;52.002;5.468;2023-07-31T01:27:24;34.30;;;12.13;;
68074;SDS011;54864;52.002;5.468;2023-07-31T01:28:33;33.08;;;11.82;;
68074;SDS011;54864;52.002;5.468;2023-07-31T01:30:00;28.75;;;10.95;;
68074;SDS011;54864;52.002;5.468;2023-07-31T01:31:29;35.92;;;13.05;;
68074;SDS011;54864;52.002;5.468;2023-07-31T01:32:31;28.73;;;11.23;;
68074;SDS011;54864;52.002;5.468;2023-07-31T01:33:37;36.03;;;11.80;;
68074;SDS011;54864;52.002;5.468;2023-07-31T01:34:44;28.98;;;10.75;;
68074;SDS011;54864;52.002;5.468;2023-07-31T01:35:47;36.00;;;11.05;;
68074;SDS011;54864;52.002;5.468;2023-07-31T01:36:49;27.83;;;10.52;;
68074;SDS011;54864;52.002;5.468;2023-07-31T01:37:52;29.47;;;10.70;;
68074;SDS011;54864;52.002;5.468;2023-07-31T01:38:57;35.30;;;11.50;;
68074;SDS011;54864;52.002;5.468;2023-07-31T01:40:00;34.40;;;12.07;;
68074;SDS011;54864;52.002;5.468;2023-07-31T01:41:02;31.17;;;11.13;;
68074;SDS011;54864;52.002;5.468;2023-07-31T01:42:04;32.33;;;11.23;;
68074;SDS011;54864;52.002;5.468;2023-07-31T01:43:05;32.38;;;11.02;;
68074;SDS011;54864;52.002;5.468;2023-07-31T01:44:07;31.77;;;11.00;;
68074;SDS011;54864;52.002;5.468;2023-07-31T01:45:08;31.45;;;11.13;;
68074;SDS011;54864;52.002;5.468;2023-07-31T01:46:11;30.35;;;10.98;;
68074;SDS011;54864;52.002;5.468;2023-07-31T01:47:11;30.00;;;11.00;;
68074;SDS011;54864;52.002;5.468;2023-07-31T01:48:13;27.98;;;10.98;;
68074;SDS011;54864;52.002;5.468;2023-07-31T01:49:14;27.88;;;11.63;;
68074;SDS011;54864;52.002;5.468;2023-07-31T01:50:16;31.77;;;12.07;;
68074;SDS011;54864;52.002;5.468;2023-07-31T01:51:22;28.75;;;10.70;;
68074;SDS011;54864;52.002;5.468;2023-07-31T01:52:37;34.10;;;12.23;;
68074;SDS011;54864;52.002;5.468;2023-07-31T01:53:38;28.70;;;12.13;;
68074;SDS011;54864;52.002;5.468;2023-07-31T01:54:43;27.85;;;10.82;;
68074;SDS011;54864;52.002;5.468;2023-07-31T01:56:04;29.08;;;11.63;;
68074;SDS011;54864;52.002;5.468;2023-07-31T01:57:06;26.92;;;11.82;;
68074;SDS011;54864;52.002;5.468;2023-07-31T01:58:25;29.60;;;11.70;;
68074;SDS011;54864;52.002;5.468;2023-07-31T01:59:27;28.55;;;11.48;;
68074;SDS011;54864;52.002;5.468;2023-07-31T02:00:31;32.40;;;11.02;;
68074;SDS011;54864;52.002;5.468;2023-07-31T02:01:51;22.30;;;10.00;;
68074;SDS011;54864;52.002;5.468;2023-07-31T02:03:06;21.95;;;9.32;;
68074;SDS011;54864;52.002;5.468;2023-07-31T02:04:27;23.98;;;8.52;;
68074;SDS011;54864;52.002;5.468;2023-07-31T02:05:27;21.02;;;8.70;;
68074;SDS011;54864;52.002;5.468;2023-07-31T02:06:29;20.42;;;8.00;;
68074;SDS011;54864;52.002;5.468;2023-07-31T02:07:48;18.98;;;8.05;;
68074;SDS011;54864;52.002;5.468;2023-07-31T02:08:50;19.33;;;7.00;;
68074;SDS011;54864;52.002;5.468;2023-07-31T02:10:10;15.13;;;6.35;;
68074;SDS011;54864;52.002;5.468;2023-07-31T02:11:28;13.60;;;6.60;;
68074;SDS011;54864;52.002;5.468;2023-07-31T02:12:48;15.90;;;6.75;;
68074;SDS011;54864;52.002;5.468;2023-07-31T02:13:55;13.90;;;5.78;;
68074;SDS011;54864;52.002;5.468;2023-07-31T02:15:16;19.92;;;7.13;;
68074;SDS011;54864;52.002;5.468;2023-07-31T02:16:17;15.23;;;6.33;;
68074;SDS011;54864;52.002;5.468;2023-07-31T02:17:37;15.63;;;6.28;;
68074;SDS011;54864;52.002;5.468;2023-07-31T02:18:41;16.17;;;6.47;;
68074;SDS011;54864;52.002;5.468;2023-07-31T02:19:43;12.93;;;6.32;;
68074;SDS011;54864;52.002;5.468;2023-07-31T02:20:48;15.70;;;6.90;;
68074;SDS011;54864;52.002;5.468;2023-07-31T02:21:51;18.50;;;6.93;;
68074;SDS011;54864;52.002;5.468;2023-07-31T02:22:51;14.13;;;7.10;;
68074;SDS011;54864;52.002;5.468;2023-07-31T02:23:53;16.90;;;7.05;;
68074;SDS011;54864;52.002;5.468;2023-07-31T02:24:54;17.15;;;7.43;;
68074;SDS011;54864;52.002;5.468;2023-07-31T02:25:56;20.35;;;7.68;;
68074;SDS011;54864;52.002;5.468;2023-07-31T02:26:58;18.10;;;7.93;;
68074;SDS011;54864;52.002;5.468;2023-07-31T02:28:06;17.67;;;7.75;;
68074;SDS011;54864;52.002;5.468;2023-07-31T02:29:07;17.40;;;8.05;;
68074;SDS011;54864;52.002;5.468;2023-07-31T02:30:11;19.23;;;8.30;;
68074;SDS011;54864;52.002;5.468;2023-07-31T02:31:31;17.88;;;7.75;;
68074;SDS011;54864;52.002;5.468;2023-07-31T02:32:51;22.85;;;8.82;;
68074;SDS011;54864;52.002;5.468;2023-07-31T02:33:53;20.90;;;8.60;;
68074;SDS011;54864;52.002;5.468;2023-07-31T02:35:12;21.63;;;9.13;;
68074;SDS011;54864;52.002;5.468;2023-07-31T02:36:25;24.92;;;9.52;;
68074;SDS011;54864;52.002;5.468;2023-07-31T02:37:44;22.02;;;9.05;;
68074;SDS011;54864;52.002;5.468;2023-07-31T02:38:49;24.77;;;9.20;;
68074;SDS011;54864;52.002;5.468;2023-07-31T02:40:05;23.55;;;9.15;;
68074;SDS011;54864;52.002;5.468;2023-07-31T02:41:07;23.37;;;9.47;;
68074;SDS011;54864;52.002;5.468;2023-07-31T02:42:13;24.90;;;9.50;;
68074;SDS011;54864;52.002;5.468;2023-07-31T02:43:15;24.83;;;8.48;;
68074;SDS011;54864;52.002;5.468;2023-07-31T02:44:16;30.33;;;9.57;;
68074;SDS011;54864;52.002;5.468;2023-07-31T02:45:18;20.08;;;8.82;;
68074;SDS011;54864;52.002;5.468;2023-07-31T02:46:37;21.45;;;8.80;;
68074;SDS011;54864;52.002;5.468;2023-07-31T02:47:58;22.10;;;9.07;;
68074;SDS011;54864;52.002;5.468;2023-07-31T02:48:58;26.45;;;10.05;;
68074;SDS011;54864;52.002;5.468;2023-07-31T02:50:19;24.88;;;10.50;;
68074;SDS011;54864;52.002;5.468;2023-07-31T02:51:19;23.97;;;9.93;;
68074;SDS011;54864;52.002;5.468;2023-07-31T02:52:21;25.60;;;10.40;;
68074;SDS011;54864;52.002;5.468;2023-07-31T02:53:22;33.50;;;10.32;;
68074;SDS011;54864;52.002;5.468;2023-07-31T02:54:23;27.10;;;9.88;;
68074;SDS011;54864;52.002;5.468;2023-07-31T02:55:27;30.25;;;11.00;;
68074;SDS011;54864;52.002;5.468;2023-07-31T02:56:46;27.35;;;9.70;;
68074;SDS011;54864;52.002;5.468;2023-07-31T02:57:53;34.55;;;10.30;;
68074;SDS011;54864;52.002;5.468;2023-07-31T02:59:11;28.27;;;10.63;;
68074;SDS011;54864;52.002;5.468;2023-07-31T03:00:13;28.90;;;10.40;;
68074;SDS011;54864;52.002;5.468;2023-07-31T03:01:26;30.85;;;10.70;;
68074;SDS011;54864;52.002;5.468;2023-07-31T03:02:36;26.50;;;10.13;;
68074;SDS011;54864;52.002;5.468;2023-07-31T03:03:56;27.17;;;10.43;;
68074;SDS011;54864;52.002;5.468;2023-07-31T03:05:16;28.30;;;11.13;;
68074;SDS011;54864;52.002;5.468;2023-07-31T03:06:17;28.77;;;10.23;;
68074;SDS011;54864;52.002;5.468;2023-07-31T03:07:37;29.02;;;10.90;;
68074;SDS011;54864;52.002;5.468;2023-07-31T03:08:46;26.65;;;10.30;;
68074;SDS011;54864;52.002;5.468;2023-07-31T03:09:46;29.37;;;11.27;;
68074;SDS011;54864;52.002;5.468;2023-07-31T03:11:07;28.65;;;10.60;;
68074;SDS011;54864;52.002;5.468;2023-07-31T03:12:10;32.85;;;11.38;;
68074;SDS011;54864;52.002;5.468;2023-07-31T03:13:32;27.25;;;10.80;;
68074;SDS011;54864;52.002;5.468;2023-07-31T03:14:51;26.55;;;11.18;;
68074;SDS011;54864;52.002;5.468;2023-07-31T03:15:59;33.40;;;10.93;;
68074;SDS011;54864;52.002;5.468;2023-07-31T03:17:18;28.63;;;10.60;;
68074;SDS011;54864;52.002;5.468;2023-07-31T03:18:20;28.03;;;10.60;;
68074;SDS011;54864;52.002;5.468;2023-07-31T03:19:33;33.73;;;10.93;;
68074;SDS011;54864;52.002;5.468;2023-07-31T03:20:53;29.95;;;10.90;;
68074;SDS011;54864;52.002;5.468;2023-07-31T03:22:13;26.15;;;10.52;;
68074;SDS011;54864;52.002;5.468;2023-07-31T03:23:20;29.35;;;11.10;;
68074;SDS011;54864;52.002;5.468;2023-07-31T03:24:21;33.50;;;10.63;;
68074;SDS011;54864;52.002;5.468;2023-07-31T03:25:54;30.33;;;10.50;;
68074;SDS011;54864;52.002;5.468;2023-07-31T03:27:11;29.73;;;11.48;;
68074;SDS011;54864;52.002;5.468;2023-07-31T03:28:16;30.13;;;11.05;;
68074;SDS011;54864;52.002;5.468;2023-07-31T03:29:18;27.77;;;10.45;;
68074;SDS011;54864;52.002;5.468;2023-07-31T03:30:36;30.88;;;10.73;;
68074;SDS011;54864;52.002;5.468;2023-07-31T03:31:56;27.88;;;10.18;;
68074;SDS011;54864;52.002;5.468;2023-07-31T03:32:59;29.67;;;10.60;;
68074;SDS011;54864;52.002;5.468;2023-07-31T03:34:18;30.02;;;10.40;;
68074;SDS011;54864;52.002;5.468;2023-07-31T03:35:23;27.48;;;10.23;;
68074;SDS011;54864;52.002;5.468;2023-07-31T03:36:26;23.27;;;9.90;;
68074;SDS011;54864;52.002;5.468;2023-07-31T03:37:46;27.38;;;9.70;;
68074;SDS011;54864;52.002;5.468;2023-07-31T03:38:56;27.52;;;11.05;;
68074;SDS011;54864;52.002;5.468;2023-07-31T03:40:16;27.35;;;10.23;;
68074;SDS011;54864;52.002;5.468;2023-07-31T03:41:17;30.83;;;10.73;;
68074;SDS011;54864;52.002;5.468;2023-07-31T03:42:19;32.53;;;10.70;;
68074;SDS011;54864;52.002;5.468;2023-07-31T03:43:20;24.70;;;9.77;;
68074;SDS011;54864;52.002;5.468;2023-07-31T03:44:42;29.60;;;10.63;;
68074;SDS011;54864;52.002;5.468;2023-07-31T03:45:43;27.77;;;9.98;;
68074;SDS011;54864;52.002;5.468;2023-07-31T03:47:03;24.70;;;9.63;;
68074;SDS011;54864;52.002;5.468;2023-07-31T03:48:05;26.05;;;10.70;;
68074;SDS011;54864;52.002;5.468;2023-07-31T03:49:20;28.30;;;10.35;;
68074;SDS011;54864;52.002;5.468;2023-07-31T03:50:39;25.40;;;9.85;;
68074;SDS011;54864;52.002;5.468;2023-07-31T03:51:41;28.33;;;10.68;;
68074;SDS011;54864;52.002;5.468;2023-07-31T03:52:54;29.35;;;10.45;;
68074;SDS011;54864;52.002;5.468;2023-07-31T03:54:14;27.03;;;10.87;;
68074;SDS011;54864;52.002;5.468;2023-07-31T03:55:33;33.63;;;10.98;;
68074;SDS011;54864;52.002;5.468;2023-07-31T03:56:54;25.55;;;10.73;;
68074;SDS011;54864;52.002;5.468;2023-07-31T03:57:54;26.73;;;9.77;;
68074;SDS011;54864;52.002;5.468;2023-07-31T03:59:15;25.40;;;10.02;;
68074;SDS011;54864;52.002;5.468;2023-07-31T04:00:17;29.20;;;9.48;;
68074;SDS011;54864;52.002;5.468;2023-07-31T04:01:19;28.13;;;10.07;;
68074;SDS011;54864;52.002;5.468;2023-07-31T04:02:20;25.98;;;10.25;;
68074;SDS011;54864;52.002;5.468;2023-07-31T04:03:21;27.58;;;9.98;;
68074;SDS011;54864;52.002;5.468;2023-07-31T04:04:25;26.55;;;10.57;;
68074;SDS011;54864;52.002;5.468;2023-07-31T04:05:39;25.55;;;9.90;;
68074;SDS011;54864;52.002;5.468;2023-07-31T04:06:46;33.50;;;10.52;;
68074;SDS011;54864;52.002;5.468;2023-07-31T04:07:47;24.42;;;10.43;;
68074;SDS011;54864;52.002;5.468;2023-07-31T04:08:48;27.57;;;10.80;;
68074;SDS011;54864;52.002;5.468;2023-07-31T04:09:52;24.70;;;9.70;;
68074;SDS011;54864;52.002;5.468;2023-07-31T04:10:58;24.83;;;10.07;;
68074;SDS011;54864;52.002;5.468;2023-07-31T04:11:58;26.63;;;9.67;;
68074;SDS011;54864;52.002;5.468;2023-07-31T04:13:00;30.10;;;10.35;;
68074;SDS011;54864;52.002;5.468;2023-07-31T04:14:04;28.38;;;10.15;;
68074;SDS011;54864;52.002;5.468;2023-07-31T04:15:06;24.13;;;10.27;;
68074;SDS011;54864;52.002;5.468;2023-07-31T04:16:09;26.60;;;10.75;;
68074;SDS011;54864;52.002;5.468;2023-07-31T04:17:09;25.38;;;10.32;;
68074;SDS011;54864;52.002;5.468;2023-07-31T04:18:11;28.35;;;10.73;;
68074;SDS011;54864;52.002;5.468;2023-07-31T04:19:12;30.02;;;10.02;;
68074;SDS011;54864;52.002;5.468;2023-07-31T04:20:16;27.55;;;9.50;;
68074;SDS011;54864;52.002;5.468;2023-07-31T04:21:17;28.40;;;9.75;;
68074;SDS011;54864;52.002;5.468;2023-07-31T04:22:19;26.77;;;10.57;;
68074;SDS011;54864;52.002;5.468;2023-07-31T04:23:20;23.27;;;9.38;;
68074;SDS011;54864;52.002;5.468;2023-07-31T04:24:22;22.25;;;9.48;;
68074;SDS011;54864;52.002;5.468;2023-07-31T04:25:24;23.13;;;9.75;;
68074;SDS011;54864;52.002;5.468;2023-07-31T04:26:25;23.05;;;9.05;;
68074;SDS011;54864;52.002;5.468;2023-07-31T04:27:27;25.73;;;10.10;;
68074;SDS011;54864;52.002;5.468;2023-07-31T04:28:46;31.83;;;9.43;;
68074;SDS011;54864;52.002;5.468;2023-07-31T04:29:50;24.77;;;9.27;;
68074;SDS011;54864;52.002;5.468;2023-07-31T04:31:00;23.85;;;9.10;;
68074;SDS011;54864;52.002;5.468;2023-07-31T04:32:22;24.27;;;10.07;;
68074;SDS011;54864;52.002;5.468;2023-07-31T04:33:23;29.30;;;9.10;;
68074;SDS011;54864;52.002;5.468;2023-07-31T04:34:36;26.95;;;9.88;;
68074;SDS011;54864;52.002;5.468;2023-07-31T04:35:50;24.88;;;9.60;;
68074;SDS011;54864;52.002;5.468;2023-07-31T04:37:11;24.67;;;10.02;;
68074;SDS011;54864;52.002;5.468;2023-07-31T04:38:12;30.83;;;10.43;;
68074;SDS011;54864;52.002;5.468;2023-07-31T04:39:20;24.13;;;9.63;;
68074;SDS011;54864;52.002;5.468;2023-07-31T04:40:21;24.05;;;9.77;;
68074;SDS011;54864;52.002;5.468;2023-07-31T04:41:25;26.17;;;9.45;;
68074;SDS011;54864;52.002;5.468;2023-07-31T04:42:44;20.33;;;9.30;;
68074;SDS011;54864;52.002;5.468;2023-07-31T04:44:05;36.67;;;10.23;;
68074;SDS011;54864;52.002;5.468;2023-07-31T04:45:06;24.45;;;9.77;;
68074;SDS011;54864;52.002;5.468;2023-07-31T04:46:09;24.10;;;8.60;;
68074;SDS011;54864;52.002;5.468;2023-07-31T04:47:29;25.77;;;8.68;;
68074;SDS011;54864;52.002;5.468;2023-07-31T04:48:49;21.70;;;9.52;;
68074;SDS011;54864;52.002;5.468;2023-07-31T04:49:50;29.27;;;9.48;;
68074;SDS011;54864;52.002;5.468;2023-07-31T04:51:11;22.73;;;9.07;;
68074;SDS011;54864;52.002;5.468;2023-07-31T04:52:11;22.63;;;8.75;;
68074;SDS011;54864;52.002;5.468;2023-07-31T04:53:32;23.95;;;10.02;;
68074;SDS011;54864;52.002;5.468;2023-07-31T04:54:45;25.33;;;9.02;;
68074;SDS011;54864;52.002;5.468;2023-07-31T04:56:03;22.75;;;8.75;;
68074;SDS011;54864;52.002;5.468;2023-07-31T04:57:22;24.77;;;8.65;;
68074;SDS011;54864;52.002;5.468;2023-07-31T04:58:24;25.35;;;8.95;;
68074;SDS011;54864;52.002;5.468;2023-07-31T04:59:25;29.48;;;9.57;;
68074;SDS011;54864;52.002;5.468;2023-07-31T05:00:27;22.48;;;9.30;;
68074;SDS011;54864;52.002;5.468;2023-07-31T05:01:46;23.23;;;8.27;;
68074;SDS011;54864;52.002;5.468;2023-07-31T05:02:58;24.25;;;9.15;;
68074;SDS011;54864;52.002;5.468;2023-07-31T05:04:08;26.63;;;8.80;;
68074;SDS011;54864;52.002;5.468;2023-07-31T05:05:28;23.33;;;8.90;;
68074;SDS011;54864;52.002;5.468;2023-07-31T05:06:29;25.67;;;8.68;;
68074;SDS011;54864;52.002;5.468;2023-07-31T05:07:49;22.33;;;8.40;;
68074;SDS011;54864;52.002;5.468;2023-07-31T05:08:53;22.83;;;8.07;;
68074;SDS011;54864;52.002;5.468;2023-07-31T05:10:13;26.10;;;8.98;;
68074;SDS011;54864;52.002;5.468;2023-07-31T05:11:14;19.10;;;8.15;;
68074;SDS011;54864;52.002;5.468;2023-07-31T05:12:35;27.05;;;8.40;;
68074;SDS011;54864;52.002;5.468;2023-07-31T05:13:42;21.80;;;8.32;;
68074;SDS011;54864;52.002;5.468;2023-07-31T05:14:47;19.98;;;7.90;;
68074;SDS011;54864;52.002;5.468;2023-07-31T05:16:06;19.93;;;8.00;;
68074;SDS011;54864;52.002;5.468;2023-07-31T05:17:08;25.83;;;8.75;;
68074;SDS011;54864;52.002;5.468;2023-07-31T05:18:28;21.38;;;7.43;;
68074;SDS011;54864;52.002;5.468;2023-07-31T05:19:30;20.20;;;8.18;;
68074;SDS011;54864;52.002;5.468;2023-07-31T05:20:30;18.27;;;7.35;;
68074;SDS011;54864;52.002;5.468;2023-07-31T05:21:32;18.20;;;7.27;;
68074;SDS011;54864;52.002;5.468;2023-07-31T05:22:33;21.77;;;8.02;;
68074;SDS011;54864;52.002;5.468;2023-07-31T05:23:35;24.50;;;7.57;;
68074;SDS011;54864;52.002;5.468;2023-07-31T05:24:41;22.50;;;7.60;;
68074;SDS011;54864;52.002;5.468;2023-07-31T05:25:43;18.92;;;7.95;;
68074;SDS011;54864;52.002;5.468;2023-07-31T05:26:47;18.63;;;8.68;;
68074;SDS011;54864;52.002;5.468;2023-07-31T05:27:48;17.27;;;7.43;;
68074;SDS011;54864;52.002;5.468;2023-07-31T05:28:49;17.02;;;7.53;;
68074;SDS011;54864;52.002;5.468;2023-07-31T05:29:51;19.83;;;7.53;;
68074;SDS011;54864;52.002;5.468;2023-07-31T05:30:52;23.83;;;7.85;;
68074;SDS011;54864;52.002;5.468;2023-07-31T05:32:00;16.77;;;7.65;;
68074;SDS011;54864;52.002;5.468;2023-07-31T05:33:01;19.30;;;7.90;;
68074;SDS011;54864;52.002;5.468;2023-07-31T05:34:07;20.33;;;7.82;;
68074;SDS011;54864;52.002;5.468;2023-07-31T05:35:08;16.02;;;7.10;;
68074;SDS011;54864;52.002;5.468;2023-07-31T05:36:10;18.00;;;8.32;;
68074;SDS011;54864;52.002;5.468;2023-07-31T05:37:10;18.40;;;7.65;;
68074;SDS011;54864;52.002;5.468;2023-07-31T05:38:12;17.67;;;8.52;;
68074;SDS011;54864;52.002;5.468;2023-07-31T05:39:16;18.65;;;8.02;;
68074;SDS011;54864;52.002;5.468;2023-07-31T05:40:19;21.15;;;8.65;;
68074;SDS011;54864;52.002;5.468;2023-07-31T05:41:20;15.38;;;7.65;;
68074;SDS011;54864;52.002;5.468;2023-07-31T05:42:22;17.98;;;8.05;;
68074;SDS011;54864;52.002;5.468;2023-07-31T05:43:23;17.70;;;8.00;;
68074;SDS011;54864;52.002;5.468;2023-07-31T05:44:25;19.38;;;8.32;;
68074;SDS011;54864;52.002;5.468;2023-07-31T05:45:26;13.93;;;7.57;;
68074;SDS011;54864;52.002;5.468;2023-07-31T05:46:27;17.58;;;8.18;;
68074;SDS011;54864;52.002;5.468;2023-07-31T05:47:28;16.47;;;7.77;;
68074;SDS011;54864;52.002;5.468;2023-07-31T05:48:41;16.42;;;7.75;;
68074;SDS011;54864;52.002;5.468;2023-07-31T05:49:43;19.23;;;8.30;;
68074;SDS011;54864;52.002;5.468;2023-07-31T05:50:45;20.25;;;8.38;;
68074;SDS011;54864;52.002;5.468;2023-07-31T05:51:46;18.80;;;8.52;;
68074;SDS011;54864;52.002;5.468;2023-07-31T05:52:48;16.83;;;7.85;;
68074;SDS011;54864;52.002;5.468;2023-07-31T05:53:49;15.82;;;8.18;;
68074;SDS011;54864;52.002;5.468;2023-07-31T05:54:50;18.98;;;7.85;;
68074;SDS011;54864;52.002;5.468;2023-07-31T05:55:51;16.88;;;7.57;;
68074;SDS011;54864;52.002;5.468;2023-07-31T05:56:53;16.58;;;7.75;;
68074;SDS011;54864;52.002;5.468;2023-07-31T05:57:54;17.40;;;8.40;;
68074;SDS011;54864;52.002;5.468;2023-07-31T05:58:56;14.70;;;8.18;;
68074;SDS011;54864;52.002;5.468;2023-07-31T05:59:57;15.57;;;7.57;;
68074;SDS011;54864;52.002;5.468;2023-07-31T06:01:02;17.85;;;8.35;;
68074;SDS011;54864;52.002;5.468;2023-07-31T06:02:03;19.08;;;8.50;;
68074;SDS011;54864;52.002;5.468;2023-07-31T06:03:05;16.85;;;8.95;;
68074;SDS011;54864;52.002;5.468;2023-07-31T06:04:06;15.80;;;8.13;;
68074;SDS011;54864;52.002;5.468;2023-07-31T06:05:09;17.50;;;8.93;;
68074;SDS011;54864;52.002;5.468;2023-07-31T06:06:10;17.65;;;8.18;;
68074;SDS011;54864;52.002;5.468;2023-07-31T06:07:13;19.77;;;8.30;;
68074;SDS011;54864;52.002;5.468;2023-07-31T06:08:14;16.13;;;7.85;;
68074;SDS011;54864;52.002;5.468;2023-07-31T06:09:16;16.92;;;8.10;;
68074;SDS011;54864;52.002;5.468;2023-07-31T06:10:17;14.63;;;7.97;;
68074;SDS011;54864;52.002;5.468;2023-07-31T06:11:19;16.38;;;8.15;;
68074;SDS011;54864;52.002;5.468;2023-07-31T06:12:21;13.52;;;8.05;;
68074;SDS011;54864;52.002;5.468;2023-07-31T06:13:26;14.43;;;7.93;;
68074;SDS011;54864;52.002;5.468;2023-07-31T06:14:29;19.33;;;8.35;;
68074;SDS011;54864;52.002;5.468;2023-07-31T06:15:33;19.95;;;7.95;;
68074;SDS011;54864;52.002;5.468;2023-07-31T06:16:37;14.13;;;7.40;;
68074;SDS011;54864;52.002;5.468;2023-07-31T06:17:41;13.27;;;7.20;;
68074;SDS011;54864;52.002;5.468;2023-07-31T06:18:46;13.73;;;7.05;;
68074;SDS011;54864;52.002;5.468;2023-07-31T06:19:47;15.18;;;7.30;;
68074;SDS011;54864;52.002;5.468;2023-07-31T06:20:50;14.90;;;6.70;;
68074;SDS011;54864;52.002;5.468;2023-07-31T06:22:13;13.82;;;6.70;;
68074;SDS011;54864;52.002;5.468;2023-07-31T06:23:15;13.93;;;6.77;;
68074;SDS011;54864;52.002;5.468;2023-07-31T06:24:18;13.10;;;7.05;;
68074;SDS011;54864;52.002;5.468;2023-07-31T06:25:24;14.30;;;6.15;;
68074;SDS011;54864;52.002;5.468;2023-07-31T06:26:27;11.07;;;6.70;;
68074;SDS011;54864;52.002;5.468;2023-07-31T06:27:29;14.63;;;6.45;;
68074;SDS011;54864;52.002;5.468;2023-07-31T06:28:42;12.85;;;6.80;;
68074;SDS011;54864;52.002;5.468;2023-07-31T06:29:44;13.55;;;6.30;;
68074;SDS011;54864;52.002;5.468;2023-07-31T06:30:45;14.95;;;7.03;;
68074;SDS011;54864;52.002;5.468;2023-07-31T06:31:49;14.27;;;6.82;;
68074;SDS011;54864;52.002;5.468;2023-07-31T06:33:09;12.82;;;6.35;;
68074;SDS011;54864;52.002;5.468;2023-07-31T06:34:10;13.57;;;6.03;;
68074;SDS011;54864;52.002;5.468;2023-07-31T06:35:30;13.02;;;6.38;;
68074;SDS011;54864;52.002;5.468;2023-07-31T06:36:36;9.50;;;5.93;;
68074;SDS011;54864;52.002;5.468;2023-07-31T06:37:55;10.25;;;5.35;;
68074;SDS011;54864;52.002;5.468;2023-07-31T06:39:15;8.65;;;5.43;;
68074;SDS011;54864;52.002;5.468;2023-07-31T06:40:21;14.02;;;5.82;;
68074;SDS011;54864;52.002;5.468;2023-07-31T06:41:26;10.55;;;5.43;;
68074;SDS011;54864;52.002;5.468;2023-07-31T06:42:27;10.97;;;5.30;;
68074;SDS011;54864;52.002;5.468;2023-07-31T06:43:47;11.48;;;5.32;;
68074;SDS011;54864;52.002;5.468;2023-07-31T06:45:07;13.07;;;5.82;;
68074;SDS011;54864;52.002;5.468;2023-07-31T06:46:12;8.30;;;5.47;;